sensor_id;sensor_type;location;lat;lon;timestamp;P1;durP1;ratioP1;P2;durP2;ratioP2
46116;SDS011;32591;48.102;11.772;2023-07-29T00:01:40;3.72;;;2.80;;
46116;SDS011;32591;48.102;11.772;2023-07-29T00:04:07;3.58;;;2.28;;
46116;SDS011;32591;48.102;11.772;2023-07-29T00:06:35;3.78;;;1.92;;
46116;SDS011;32591;48.102;11.772;2023-07-29T00:09:02;3.88;;;2.08;;
46116;SDS011;32591;48.102;11.772;2023-07-29T00:11:30;2.65;;;1.83;;
46116;SDS011;32591;48.102;11.772;2023-07-29T00:13:58;3.85;;;2.00;;
46116;SDS011;32591;48.102;11.772;2023-07-29T00:16:26;4.82;;;2.53;;
46116;SDS011;32591;48.102;11.772;2023-07-29T00:18:53;3.42;;;2.03;;
46116;SDS011;32591;48.102;11.772;2023-07-29T00:21:19;3.95;;;2.20;;
46116;SDS011;32591;48.102;11.772;2023-07-29T00:23:46;3.38;;;2.13;;
46116;SDS011;32591;48.102;11.772;2023-07-29T00:26:13;5.97;;;1.85;;
46116;SDS011;32591;48.102;11.772;2023-07-29T00:28:42;4.35;;;2.40;;
46116;SDS011;32591;48.102;11.772;2023-07-29T00:31:08;5.57;;;1.90;;
46116;SDS011;32591;48.102;11.772;2023-07-29T00:33:35;3.45;;;1.95;;
46116;SDS011;32591;48.102;11.772;2023-07-29T00:36:03;2.65;;;1.77;;
46116;SDS011;32591;48.102;11.772;2023-07-29T00:38:30;3.33;;;1.90;;
46116;SDS011;32591;48.102;11.772;2023-07-29T00:40:57;5.32;;;2.03;;
46116;SDS011;32591;48.102;11.772;2023-07-29T00:43:24;3.30;;;1.70;;
46116;SDS011;32591;48.102;11.772;2023-07-29T00:45:53;3.55;;;1.88;;
46116;SDS011;32591;48.102;11.772;2023-07-29T00:48:22;3.90;;;1.80;;
46116;SDS011;32591;48.102;11.772;2023-07-29T00:50:49;4.40;;;2.20;;
46116;SDS011;32591;48.102;11.772;2023-07-29T00:53:17;4.60;;;1.80;;
46116;SDS011;32591;48.102;11.772;2023-07-29T00:55:44;3.53;;;1.80;;
46116;SDS011;32591;48.102;11.772;2023-07-29T00:58:11;3.70;;;2.25;;
46116;SDS011;32591;48.102;11.772;2023-07-29T01:00:38;4.07;;;1.73;;
46116;SDS011;32591;48.102;11.772;2023-07-29T01:03:07;3.40;;;1.80;;
46116;SDS011;32591;48.102;11.772;2023-07-29T01:05:36;3.67;;;1.80;;
46116;SDS011;32591;48.102;11.772;2023-07-29T01:08:20;2.80;;;1.80;;
46116;SDS011;32591;48.102;11.772;2023-07-29T01:10:54;3.67;;;1.80;;
46116;SDS011;32591;48.102;11.772;2023-07-29T01:13:31;3.30;;;1.67;;
46116;SDS011;32591;48.102;11.772;2023-07-29T01:16:06;3.38;;;2.33;;
46116;SDS011;32591;48.102;11.772;2023-07-29T01:18:42;2.83;;;1.83;;
46116;SDS011;32591;48.102;11.772;2023-07-29T01:21:12;2.70;;;1.60;;
46116;SDS011;32591;48.102;11.772;2023-07-29T01:23:42;6.13;;;2.22;;
46116;SDS011;32591;48.102;11.772;2023-07-29T01:26:09;5.00;;;1.88;;
46116;SDS011;32591;48.102;11.772;2023-07-29T01:28:37;3.42;;;1.75;;
46116;SDS011;32591;48.102;11.772;2023-07-29T01:31:07;2.88;;;1.95;;
46116;SDS011;32591;48.102;11.772;2023-07-29T01:33:44;4.15;;;2.20;;
46116;SDS011;32591;48.102;11.772;2023-07-29T01:36:20;3.78;;;2.10;;
46116;SDS011;32591;48.102;11.772;2023-07-29T01:38:50;2.92;;;1.70;;
46116;SDS011;32591;48.102;11.772;2023-07-29T01:41:18;4.53;;;1.70;;
46116;SDS011;32591;48.102;11.772;2023-07-29T01:43:46;5.15;;;2.65;;
46116;SDS011;32591;48.102;11.772;2023-07-29T01:46:14;4.75;;;2.20;;
46116;SDS011;32591;48.102;11.772;2023-07-29T01:48:41;3.33;;;2.17;;
46116;SDS011;32591;48.102;11.772;2023-07-29T01:51:11;3.03;;;1.77;;
46116;SDS011;32591;48.102;11.772;2023-07-29T01:53:38;3.20;;;1.63;;
46116;SDS011;32591;48.102;11.772;2023-07-29T01:56:07;4.30;;;2.58;;
46116;SDS011;32591;48.102;11.772;2023-07-29T01:58:34;2.92;;;1.88;;
46116;SDS011;32591;48.102;11.772;2023-07-29T02:01:01;3.45;;;1.73;;
46116;SDS011;32591;48.102;11.772;2023-07-29T02:03:28;2.85;;;1.73;;
46116;SDS011;32591;48.102;11.772;2023-07-29T02:05:55;3.80;;;1.95;;
46116;SDS011;32591;48.102;11.772;2023-07-29T02:08:22;4.45;;;2.10;;
46116;SDS011;32591;48.102;11.772;2023-07-29T02:10:49;3.63;;;2.17;;
46116;SDS011;32591;48.102;11.772;2023-07-29T02:13:17;2.85;;;1.77;;
46116;SDS011;32591;48.102;11.772;2023-07-29T02:15:44;3.42;;;1.95;;
46116;SDS011;32591;48.102;11.772;2023-07-29T02:18:11;3.45;;;1.80;;
46116;SDS011;32591;48.102;11.772;2023-07-29T02:20:38;2.47;;;1.63;;
46116;SDS011;32591;48.102;11.772;2023-07-29T02:23:05;2.63;;;1.65;;
46116;SDS011;32591;48.102;11.772;2023-07-29T02:25:34;4.03;;;1.88;;
46116;SDS011;32591;48.102;11.772;2023-07-29T02:28:02;3.00;;;1.85;;
46116;SDS011;32591;48.102;11.772;2023-07-29T02:30:31;3.35;;;2.03;;
46116;SDS011;32591;48.102;11.772;2023-07-29T02:32:58;3.22;;;1.52;;
46116;SDS011;32591;48.102;11.772;2023-07-29T02:35:26;4.90;;;2.58;;
46116;SDS011;32591;48.102;11.772;2023-07-29T02:37:53;3.42;;;1.98;;
46116;SDS011;32591;48.102;11.772;2023-07-29T02:40:20;3.42;;;1.95;;
46116;SDS011;32591;48.102;11.772;2023-07-29T02:42:48;2.70;;;1.75;;
46116;SDS011;32591;48.102;11.772;2023-07-29T02:45:15;3.15;;;2.03;;
46116;SDS011;32591;48.102;11.772;2023-07-29T02:47:43;3.95;;;1.95;;
46116;SDS011;32591;48.102;11.772;2023-07-29T02:50:10;5.57;;;2.13;;
46116;SDS011;32591;48.102;11.772;2023-07-29T02:52:37;3.00;;;1.73;;
46116;SDS011;32591;48.102;11.772;2023-07-29T02:55:05;2.95;;;1.77;;
46116;SDS011;32591;48.102;11.772;2023-07-29T02:57:32;5.05;;;1.98;;
46116;SDS011;32591;48.102;11.772;2023-07-29T02:59:59;5.55;;;1.88;;
46116;SDS011;32591;48.102;11.772;2023-07-29T03:02:26;2.50;;;1.75;;
46116;SDS011;32591;48.102;11.772;2023-07-29T03:04:54;2.95;;;1.50;;
46116;SDS011;32591;48.102;11.772;2023-07-29T03:07:21;3.15;;;1.70;;
46116;SDS011;32591;48.102;11.772;2023-07-29T03:09:48;2.05;;;1.52;;
46116;SDS011;32591;48.102;11.772;2023-07-29T03:12:15;4.05;;;2.00;;
46116;SDS011;32591;48.102;11.772;2023-07-29T03:14:42;2.65;;;1.50;;
46116;SDS011;32591;48.102;11.772;2023-07-29T03:17:09;2.85;;;2.20;;
46116;SDS011;32591;48.102;11.772;2023-07-29T03:19:36;3.88;;;1.67;;
46116;SDS011;32591;48.102;11.772;2023-07-29T03:22:04;2.60;;;1.60;;
46116;SDS011;32591;48.102;11.772;2023-07-29T03:24:32;3.45;;;1.50;;
46116;SDS011;32591;48.102;11.772;2023-07-29T03:26:59;2.53;;;1.67;;
46116;SDS011;32591;48.102;11.772;2023-07-29T03:29:26;2.33;;;1.40;;
46116;SDS011;32591;48.102;11.772;2023-07-29T03:31:52;4.68;;;2.20;;
46116;SDS011;32591;48.102;11.772;2023-07-29T03:34:20;2.92;;;1.40;;
46116;SDS011;32591;48.102;11.772;2023-07-29T03:36:47;3.45;;;1.95;;
46116;SDS011;32591;48.102;11.772;2023-07-29T03:39:17;3.33;;;1.65;;
46116;SDS011;32591;48.102;11.772;2023-07-29T03:41:44;3.85;;;1.85;;
46116;SDS011;32591;48.102;11.772;2023-07-29T03:44:11;4.30;;;1.55;;
46116;SDS011;32591;48.102;11.772;2023-07-29T03:46:37;2.95;;;1.67;;
46116;SDS011;32591;48.102;11.772;2023-07-29T03:49:04;2.97;;;1.77;;
46116;SDS011;32591;48.102;11.772;2023-07-29T03:51:32;4.10;;;2.00;;
46116;SDS011;32591;48.102;11.772;2023-07-29T03:53:59;3.53;;;1.67;;
46116;SDS011;32591;48.102;11.772;2023-07-29T03:56:27;2.97;;;1.83;;
46116;SDS011;32591;48.102;11.772;2023-07-29T03:58:57;3.83;;;1.90;;
46116;SDS011;32591;48.102;11.772;2023-07-29T04:01:29;3.35;;;1.83;;
46116;SDS011;32591;48.102;11.772;2023-07-29T04:03:57;2.38;;;1.58;;
46116;SDS011;32591;48.102;11.772;2023-07-29T04:06:25;3.00;;;1.83;;
46116;SDS011;32591;48.102;11.772;2023-07-29T04:08:52;3.53;;;1.73;;
46116;SDS011;32591;48.102;11.772;2023-07-29T04:11:19;2.55;;;1.63;;
46116;SDS011;32591;48.102;11.772;2023-07-29T04:13:48;4.07;;;1.48;;
46116;SDS011;32591;48.102;11.772;2023-07-29T04:16:15;4.82;;;1.70;;
46116;SDS011;32591;48.102;11.772;2023-07-29T04:18:43;2.45;;;1.45;;
46116;SDS011;32591;48.102;11.772;2023-07-29T04:21:09;2.75;;;1.73;;
46116;SDS011;32591;48.102;11.772;2023-07-29T04:23:37;3.70;;;1.70;;
46116;SDS011;32591;48.102;11.772;2023-07-29T04:26:05;3.40;;;1.75;;
46116;SDS011;32591;48.102;11.772;2023-07-29T04:28:32;2.45;;;1.33;;
46116;SDS011;32591;48.102;11.772;2023-07-29T04:31:00;3.03;;;2.03;;
46116;SDS011;32591;48.102;11.772;2023-07-29T04:33:28;4.05;;;1.77;;
46116;SDS011;32591;48.102;11.772;2023-07-29T04:35:55;2.28;;;1.40;;
46116;SDS011;32591;48.102;11.772;2023-07-29T04:38:23;4.80;;;1.58;;
46116;SDS011;32591;48.102;11.772;2023-07-29T04:40:56;2.70;;;1.80;;
46116;SDS011;32591;48.102;11.772;2023-07-29T04:43:26;2.38;;;1.30;;
46116;SDS011;32591;48.102;11.772;2023-07-29T04:45:53;2.10;;;1.13;;
46116;SDS011;32591;48.102;11.772;2023-07-29T04:48:22;3.47;;;1.60;;
46116;SDS011;32591;48.102;11.772;2023-07-29T04:50:49;3.10;;;1.88;;
46116;SDS011;32591;48.102;11.772;2023-07-29T04:53:16;4.45;;;1.77;;
46116;SDS011;32591;48.102;11.772;2023-07-29T04:55:43;2.75;;;1.80;;
46116;SDS011;32591;48.102;11.772;2023-07-29T04:58:10;3.90;;;2.10;;
46116;SDS011;32591;48.102;11.772;2023-07-29T05:00:37;2.75;;;1.63;;
46116;SDS011;32591;48.102;11.772;2023-07-29T05:03:04;4.20;;;1.60;;
46116;SDS011;32591;48.102;11.772;2023-07-29T05:05:33;3.60;;;1.88;;
46116;SDS011;32591;48.102;11.772;2023-07-29T05:08:00;2.72;;;1.70;;
46116;SDS011;32591;48.102;11.772;2023-07-29T05:10:27;2.50;;;1.40;;
46116;SDS011;32591;48.102;11.772;2023-07-29T05:12:54;2.42;;;1.77;;
46116;SDS011;32591;48.102;11.772;2023-07-29T05:15:21;2.80;;;1.70;;
46116;SDS011;32591;48.102;11.772;2023-07-29T05:17:48;3.78;;;1.75;;
46116;SDS011;32591;48.102;11.772;2023-07-29T05:20:15;3.72;;;1.60;;
46116;SDS011;32591;48.102;11.772;2023-07-29T05:22:43;2.80;;;1.73;;
46116;SDS011;32591;48.102;11.772;2023-07-29T05:25:10;4.20;;;1.65;;
46116;SDS011;32591;48.102;11.772;2023-07-29T05:27:37;3.83;;;1.77;;
46116;SDS011;32591;48.102;11.772;2023-07-29T05:30:04;2.67;;;1.33;;
46116;SDS011;32591;48.102;11.772;2023-07-29T05:32:33;3.58;;;1.90;;
46116;SDS011;32591;48.102;11.772;2023-07-29T05:35:00;3.05;;;1.70;;
46116;SDS011;32591;48.102;11.772;2023-07-29T05:37:28;3.13;;;1.60;;
46116;SDS011;32591;48.102;11.772;2023-07-29T05:39:56;2.13;;;1.60;;
46116;SDS011;32591;48.102;11.772;2023-07-29T05:42:23;3.22;;;1.88;;
46116;SDS011;32591;48.102;11.772;2023-07-29T05:44:50;3.22;;;1.75;;
46116;SDS011;32591;48.102;11.772;2023-07-29T05:47:17;2.67;;;1.17;;
46116;SDS011;32591;48.102;11.772;2023-07-29T05:49:44;2.80;;;1.58;;
46116;SDS011;32591;48.102;11.772;2023-07-29T05:52:11;2.67;;;1.40;;
46116;SDS011;32591;48.102;11.772;2023-07-29T05:54:38;4.30;;;1.85;;
46116;SDS011;32591;48.102;11.772;2023-07-29T05:57:06;2.70;;;1.48;;
46116;SDS011;32591;48.102;11.772;2023-07-29T05:59:33;1.92;;;1.42;;
46116;SDS011;32591;48.102;11.772;2023-07-29T06:02:00;2.95;;;1.80;;
46116;SDS011;32591;48.102;11.772;2023-07-29T06:04:27;2.70;;;1.58;;
46116;SDS011;32591;48.102;11.772;2023-07-29T06:06:54;2.42;;;1.23;;
46116;SDS011;32591;48.102;11.772;2023-07-29T06:09:21;2.00;;;1.30;;
46116;SDS011;32591;48.102;11.772;2023-07-29T06:11:50;3.17;;;1.63;;
46116;SDS011;32591;48.102;11.772;2023-07-29T06:14:19;2.22;;;1.48;;
46116;SDS011;32591;48.102;11.772;2023-07-29T06:16:46;3.13;;;1.35;;
46116;SDS011;32591;48.102;11.772;2023-07-29T06:19:13;3.00;;;1.60;;
46116;SDS011;32591;48.102;11.772;2023-07-29T06:21:39;3.85;;;2.03;;
46116;SDS011;32591;48.102;11.772;2023-07-29T06:24:06;3.80;;;2.00;;
46116;SDS011;32591;48.102;11.772;2023-07-29T06:26:33;4.40;;;1.75;;
46116;SDS011;32591;48.102;11.772;2023-07-29T06:29:00;3.40;;;1.77;;
46116;SDS011;32591;48.102;11.772;2023-07-29T06:31:28;4.20;;;2.25;;
46116;SDS011;32591;48.102;11.772;2023-07-29T06:33:57;2.80;;;1.58;;
46116;SDS011;32591;48.102;11.772;2023-07-29T06:36:24;2.60;;;1.58;;
46116;SDS011;32591;48.102;11.772;2023-07-29T06:38:51;2.10;;;1.40;;
46116;SDS011;32591;48.102;11.772;2023-07-29T06:41:18;3.25;;;1.65;;
46116;SDS011;32591;48.102;11.772;2023-07-29T06:43:45;4.38;;;1.85;;
46116;SDS011;32591;48.102;11.772;2023-07-29T06:46:12;2.72;;;1.63;;
46116;SDS011;32591;48.102;11.772;2023-07-29T06:48:40;4.10;;;1.98;;
46116;SDS011;32591;48.102;11.772;2023-07-29T06:51:07;2.80;;;2.13;;
46116;SDS011;32591;48.102;11.772;2023-07-29T06:53:34;2.72;;;1.40;;
46116;SDS011;32591;48.102;11.772;2023-07-29T06:56:01;4.07;;;1.80;;
46116;SDS011;32591;48.102;11.772;2023-07-29T06:58:29;2.08;;;1.30;;
46116;SDS011;32591;48.102;11.772;2023-07-29T07:00:56;4.25;;;1.50;;
46116;SDS011;32591;48.102;11.772;2023-07-29T07:03:23;3.00;;;1.83;;
46116;SDS011;32591;48.102;11.772;2023-07-29T07:05:52;2.85;;;1.58;;
46116;SDS011;32591;48.102;11.772;2023-07-29T07:08:18;2.70;;;1.63;;
46116;SDS011;32591;48.102;11.772;2023-07-29T07:10:46;3.28;;;1.60;;
46116;SDS011;32591;48.102;11.772;2023-07-29T07:13:13;2.42;;;1.73;;
46116;SDS011;32591;48.102;11.772;2023-07-29T07:15:40;3.45;;;1.65;;
46116;SDS011;32591;48.102;11.772;2023-07-29T07:18:07;6.95;;;1.90;;
46116;SDS011;32591;48.102;11.772;2023-07-29T07:20:34;2.92;;;1.90;;
46116;SDS011;32591;48.102;11.772;2023-07-29T07:23:03;4.55;;;1.80;;
46116;SDS011;32591;48.102;11.772;2023-07-29T07:25:33;4.88;;;2.30;;
46116;SDS011;32591;48.102;11.772;2023-07-29T07:28:00;3.28;;;1.65;;
46116;SDS011;32591;48.102;11.772;2023-07-29T07:30:27;5.25;;;2.00;;
46116;SDS011;32591;48.102;11.772;2023-07-29T07:32:54;4.93;;;2.22;;
46116;SDS011;32591;48.102;11.772;2023-07-29T07:35:21;4.63;;;2.17;;
46116;SDS011;32591;48.102;11.772;2023-07-29T07:37:48;5.93;;;2.38;;
46116;SDS011;32591;48.102;11.772;2023-07-29T07:40:16;3.42;;;2.15;;
46116;SDS011;32591;48.102;11.772;2023-07-29T07:42:43;5.07;;;1.65;;
46116;SDS011;32591;48.102;11.772;2023-07-29T07:45:10;5.38;;;1.95;;
46116;SDS011;32591;48.102;11.772;2023-07-29T07:47:37;3.42;;;1.75;;
46116;SDS011;32591;48.102;11.772;2023-07-29T07:50:04;3.38;;;2.00;;
46116;SDS011;32591;48.102;11.772;2023-07-29T07:52:32;3.75;;;1.60;;
46116;SDS011;32591;48.102;11.772;2023-07-29T07:54:59;3.85;;;2.03;;
46116;SDS011;32591;48.102;11.772;2023-07-29T07:57:28;2.35;;;1.60;;
46116;SDS011;32591;48.102;11.772;2023-07-29T07:59:54;3.45;;;1.75;;
46116;SDS011;32591;48.102;11.772;2023-07-29T08:02:21;3.28;;;1.75;;
46116;SDS011;32591;48.102;11.772;2023-07-29T08:04:48;3.28;;;1.88;;
46116;SDS011;32591;48.102;11.772;2023-07-29T08:07:15;4.25;;;2.20;;
46116;SDS011;32591;48.102;11.772;2023-07-29T08:09:42;2.38;;;1.58;;
46116;SDS011;32591;48.102;11.772;2023-07-29T08:12:10;3.10;;;2.05;;
46116;SDS011;32591;48.102;11.772;2023-07-29T08:14:38;5.63;;;2.17;;
46116;SDS011;32591;48.102;11.772;2023-07-29T08:17:05;2.40;;;1.63;;
46116;SDS011;32591;48.102;11.772;2023-07-29T08:19:32;3.92;;;2.22;;
46116;SDS011;32591;48.102;11.772;2023-07-29T08:22:01;3.97;;;2.00;;
46116;SDS011;32591;48.102;11.772;2023-07-29T08:24:29;3.10;;;2.13;;
46116;SDS011;32591;48.102;11.772;2023-07-29T08:26:55;3.97;;;2.30;;
46116;SDS011;32591;48.102;11.772;2023-07-29T08:29:22;3.95;;;1.75;;
46116;SDS011;32591;48.102;11.772;2023-07-29T08:31:51;3.15;;;2.05;;
46116;SDS011;32591;48.102;11.772;2023-07-29T08:34:18;3.08;;;2.10;;
46116;SDS011;32591;48.102;11.772;2023-07-29T08:36:45;3.92;;;2.30;;
46116;SDS011;32591;48.102;11.772;2023-07-29T08:39:11;2.90;;;2.00;;
46116;SDS011;32591;48.102;11.772;2023-07-29T08:41:41;5.07;;;2.20;;
46116;SDS011;32591;48.102;11.772;2023-07-29T08:44:20;2.58;;;1.77;;
46116;SDS011;32591;48.102;11.772;2023-07-29T08:46:50;3.50;;;2.42;;
46116;SDS011;32591;48.102;11.772;2023-07-29T08:49:19;3.55;;;2.00;;
46116;SDS011;32591;48.102;11.772;2023-07-29T08:51:48;3.13;;;2.03;;
46116;SDS011;32591;48.102;11.772;2023-07-29T08:54:16;3.67;;;2.20;;
46116;SDS011;32591;48.102;11.772;2023-07-29T08:56:43;3.08;;;1.90;;
46116;SDS011;32591;48.102;11.772;2023-07-29T08:59:11;4.60;;;2.22;;
46116;SDS011;32591;48.102;11.772;2023-07-29T09:01:39;3.40;;;2.33;;
46116;SDS011;32591;48.102;11.772;2023-07-29T09:04:09;3.80;;;1.92;;
46116;SDS011;32591;48.102;11.772;2023-07-29T09:06:36;2.72;;;1.92;;
46116;SDS011;32591;48.102;11.772;2023-07-29T09:09:05;2.90;;;2.00;;
46116;SDS011;32591;48.102;11.772;2023-07-29T09:11:34;4.22;;;2.65;;
46116;SDS011;32591;48.102;11.772;2023-07-29T09:14:02;3.38;;;2.28;;
46116;SDS011;32591;48.102;11.772;2023-07-29T09:16:29;3.00;;;2.08;;
46116;SDS011;32591;48.102;11.772;2023-07-29T09:18:56;2.85;;;1.88;;
46116;SDS011;32591;48.102;11.772;2023-07-29T09:21:30;3.60;;;2.10;;
46116;SDS011;32591;48.102;11.772;2023-07-29T09:23:57;3.90;;;2.35;;
46116;SDS011;32591;48.102;11.772;2023-07-29T09:26:30;4.45;;;2.20;;
46116;SDS011;32591;48.102;11.772;2023-07-29T09:28:57;3.90;;;2.05;;
46116;SDS011;32591;48.102;11.772;2023-07-29T09:31:26;3.63;;;2.50;;
46116;SDS011;32591;48.102;11.772;2023-07-29T09:33:55;4.28;;;2.15;;
46116;SDS011;32591;48.102;11.772;2023-07-29T09:36:24;3.55;;;2.13;;
46116;SDS011;32591;48.102;11.772;2023-07-29T09:38:53;3.00;;;2.17;;
46116;SDS011;32591;48.102;11.772;2023-07-29T09:41:21;3.60;;;2.38;;
46116;SDS011;32591;48.102;11.772;2023-07-29T09:43:51;3.58;;;2.78;;
46116;SDS011;32591;48.102;11.772;2023-07-29T09:46:23;4.07;;;2.20;;
46116;SDS011;32591;48.102;11.772;2023-07-29T09:48:52;3.55;;;2.42;;
46116;SDS011;32591;48.102;11.772;2023-07-29T09:51:21;3.17;;;2.15;;
46116;SDS011;32591;48.102;11.772;2023-07-29T09:53:49;3.90;;;2.60;;
46116;SDS011;32591;48.102;11.772;2023-07-29T09:56:18;3.50;;;2.53;;
46116;SDS011;32591;48.102;11.772;2023-07-29T09:58:51;4.88;;;3.00;;
46116;SDS011;32591;48.102;11.772;2023-07-29T10:01:19;3.80;;;2.40;;
46116;SDS011;32591;48.102;11.772;2023-07-29T10:03:46;4.65;;;2.60;;
46116;SDS011;32591;48.102;11.772;2023-07-29T10:06:15;4.05;;;2.45;;
46116;SDS011;32591;48.102;11.772;2023-07-29T10:08:43;3.15;;;2.53;;
46116;SDS011;32591;48.102;11.772;2023-07-29T10:11:10;3.75;;;2.53;;
46116;SDS011;32591;48.102;11.772;2023-07-29T10:13:39;5.82;;;2.72;;
46116;SDS011;32591;48.102;11.772;2023-07-29T10:16:06;4.68;;;2.60;;
46116;SDS011;32591;48.102;11.772;2023-07-29T10:18:33;3.90;;;2.83;;
46116;SDS011;32591;48.102;11.772;2023-07-29T10:21:01;4.80;;;2.60;;
46116;SDS011;32591;48.102;11.772;2023-07-29T10:23:32;3.13;;;2.38;;
46116;SDS011;32591;48.102;11.772;2023-07-29T10:26:04;3.65;;;2.60;;
46116;SDS011;32591;48.102;11.772;2023-07-29T10:28:33;5.22;;;3.00;;
46116;SDS011;32591;48.102;11.772;2023-07-29T10:31:05;3.72;;;2.80;;
46116;SDS011;32591;48.102;11.772;2023-07-29T10:33:32;3.22;;;2.28;;
46116;SDS011;32591;48.102;11.772;2023-07-29T10:36:00;5.82;;;2.60;;
46116;SDS011;32591;48.102;11.772;2023-07-29T10:38:28;5.32;;;2.78;;
46116;SDS011;32591;48.102;11.772;2023-07-29T10:40:56;4.07;;;2.63;;
46116;SDS011;32591;48.102;11.772;2023-07-29T10:43:26;5.32;;;2.97;;
46116;SDS011;32591;48.102;11.772;2023-07-29T10:45:54;3.65;;;2.60;;
46116;SDS011;32591;48.102;11.772;2023-07-29T10:48:42;3.30;;;2.47;;
46116;SDS011;32591;48.102;11.772;2023-07-29T10:51:24;3.53;;;2.55;;
46116;SDS011;32591;48.102;11.772;2023-07-29T10:53:54;4.05;;;2.63;;
46116;SDS011;32591;48.102;11.772;2023-07-29T10:56:26;3.60;;;2.45;;
46116;SDS011;32591;48.102;11.772;2023-07-29T10:58:56;4.68;;;3.08;;
46116;SDS011;32591;48.102;11.772;2023-07-29T11:01:28;3.65;;;2.67;;
46116;SDS011;32591;48.102;11.772;2023-07-29T11:07:01;3.53;;;2.67;;
46116;SDS011;32591;48.102;11.772;2023-07-29T11:09:52;6.30;;;2.63;;
46116;SDS011;32591;48.102;11.772;2023-07-29T11:12:39;3.90;;;2.60;;
46116;SDS011;32591;48.102;11.772;2023-07-29T11:17:49;3.97;;;2.55;;
46116;SDS011;32591;48.102;11.772;2023-07-29T11:20:20;4.20;;;2.90;;
46116;SDS011;32591;48.102;11.772;2023-07-29T11:22:48;4.93;;;2.85;;
46116;SDS011;32591;48.102;11.772;2023-07-29T11:25:16;5.05;;;2.78;;
46116;SDS011;32591;48.102;11.772;2023-07-29T11:27:44;4.38;;;2.80;;
46116;SDS011;32591;48.102;11.772;2023-07-29T11:30:12;4.05;;;2.85;;
46116;SDS011;32591;48.102;11.772;2023-07-29T11:32:41;5.55;;;2.63;;
46116;SDS011;32591;48.102;11.772;2023-07-29T11:35:10;4.45;;;2.97;;
46116;SDS011;32591;48.102;11.772;2023-07-29T11:37:42;4.68;;;2.83;;
46116;SDS011;32591;48.102;11.772;2023-07-29T11:40:13;3.30;;;2.53;;
46116;SDS011;32591;48.102;11.772;2023-07-29T11:42:41;2.95;;;1.90;;
46116;SDS011;32591;48.102;11.772;2023-07-29T11:45:08;4.00;;;2.10;;
46116;SDS011;32591;48.102;11.772;2023-07-29T11:47:36;2.85;;;2.08;;
46116;SDS011;32591;48.102;11.772;2023-07-29T11:50:04;2.72;;;1.60;;
46116;SDS011;32591;48.102;11.772;2023-07-29T11:52:34;3.95;;;1.85;;
46116;SDS011;32591;48.102;11.772;2023-07-29T11:55:04;2.70;;;1.80;;
46116;SDS011;32591;48.102;11.772;2023-07-29T11:57:33;3.17;;;2.20;;
46116;SDS011;32591;48.102;11.772;2023-07-29T12:00:02;2.88;;;1.50;;
46116;SDS011;32591;48.102;11.772;2023-07-29T12:02:31;3.28;;;2.15;;
46116;SDS011;32591;48.102;11.772;2023-07-29T12:04:59;2.55;;;1.73;;
46116;SDS011;32591;48.102;11.772;2023-07-29T12:07:27;3.13;;;1.85;;
46116;SDS011;32591;48.102;11.772;2023-07-29T12:09:54;2.35;;;1.52;;
46116;SDS011;32591;48.102;11.772;2023-07-29T12:12:23;3.88;;;1.60;;
46116;SDS011;32591;48.102;11.772;2023-07-29T12:14:50;3.08;;;2.05;;
46116;SDS011;32591;48.102;11.772;2023-07-29T12:17:17;4.18;;;1.98;;
46116;SDS011;32591;48.102;11.772;2023-07-29T12:19:44;3.72;;;2.05;;
46116;SDS011;32591;48.102;11.772;2023-07-29T12:22:11;3.08;;;2.00;;
46116;SDS011;32591;48.102;11.772;2023-07-29T12:24:45;2.75;;;1.83;;
46116;SDS011;32591;48.102;11.772;2023-07-29T12:27:12;5.72;;;1.80;;
46116;SDS011;32591;48.102;11.772;2023-07-29T12:29:43;2.88;;;2.10;;
46116;SDS011;32591;48.102;11.772;2023-07-29T12:32:11;2.60;;;1.98;;
46116;SDS011;32591;48.102;11.772;2023-07-29T12:34:39;3.08;;;2.28;;
46116;SDS011;32591;48.102;11.772;2023-07-29T12:37:06;5.43;;;1.90;;
46116;SDS011;32591;48.102;11.772;2023-07-29T12:39:34;3.58;;;2.22;;
46116;SDS011;32591;48.102;11.772;2023-07-29T12:42:06;3.53;;;2.60;;
46116;SDS011;32591;48.102;11.772;2023-07-29T12:44:33;3.78;;;2.45;;
46116;SDS011;32591;48.102;11.772;2023-07-29T12:47:03;2.97;;;2.40;;
46116;SDS011;32591;48.102;11.772;2023-07-29T12:49:33;3.22;;;2.35;;
46116;SDS011;32591;48.102;11.772;2023-07-29T12:52:00;4.30;;;3.00;;
46116;SDS011;32591;48.102;11.772;2023-07-29T12:54:27;2.92;;;2.20;;
46116;SDS011;32591;48.102;11.772;2023-07-29T12:56:54;4.35;;;2.40;;
46116;SDS011;32591;48.102;11.772;2023-07-29T12:59:21;3.08;;;2.08;;
46116;SDS011;32591;48.102;11.772;2023-07-29T13:01:48;4.85;;;2.08;;
46116;SDS011;32591;48.102;11.772;2023-07-29T13:04:16;4.47;;;2.47;;
46116;SDS011;32591;48.102;11.772;2023-07-29T13:06:44;3.42;;;2.58;;
46116;SDS011;32591;48.102;11.772;2023-07-29T13:09:11;3.25;;;2.28;;
46116;SDS011;32591;48.102;11.772;2023-07-29T13:11:38;2.85;;;2.08;;
46116;SDS011;32591;48.102;11.772;2023-07-29T13:14:05;3.85;;;1.52;;
46116;SDS011;32591;48.102;11.772;2023-07-29T13:16:32;2.60;;;1.23;;
46116;SDS011;32591;48.102;11.772;2023-07-29T13:18:59;3.00;;;1.40;;
46116;SDS011;32591;48.102;11.772;2023-07-29T13:21:27;3.67;;;1.60;;
46116;SDS011;32591;48.102;11.772;2023-07-29T13:23:54;2.95;;;1.60;;
46116;SDS011;32591;48.102;11.772;2023-07-29T13:26:21;5.10;;;1.52;;
46116;SDS011;32591;48.102;11.772;2023-07-29T13:28:48;5.20;;;2.92;;
46116;SDS011;32591;48.102;11.772;2023-07-29T13:31:15;5.88;;;2.28;;
46116;SDS011;32591;48.102;11.772;2023-07-29T13:33:42;4.93;;;2.17;;
46116;SDS011;32591;48.102;11.772;2023-07-29T13:36:09;4.95;;;3.05;;
46116;SDS011;32591;48.102;11.772;2023-07-29T13:38:37;9.10;;;3.20;;
46116;SDS011;32591;48.102;11.772;2023-07-29T13:41:04;4.43;;;2.58;;
46116;SDS011;32591;48.102;11.772;2023-07-29T13:43:31;4.35;;;2.35;;
46116;SDS011;32591;48.102;11.772;2023-07-29T13:45:57;6.85;;;3.20;;
46116;SDS011;32591;48.102;11.772;2023-07-29T13:48:24;6.30;;;3.47;;
46116;SDS011;32591;48.102;11.772;2023-07-29T13:50:51;6.28;;;3.45;;
46116;SDS011;32591;48.102;11.772;2023-07-29T13:53:18;5.72;;;3.13;;
46116;SDS011;32591;48.102;11.772;2023-07-29T13:55:46;5.15;;;3.10;;
46116;SDS011;32591;48.102;11.772;2023-07-29T13:58:14;4.30;;;2.67;;
46116;SDS011;32591;48.102;11.772;2023-07-29T14:00:40;7.03;;;2.67;;
46116;SDS011;32591;48.102;11.772;2023-07-29T14:03:08;7.55;;;3.92;;
46116;SDS011;32591;48.102;11.772;2023-07-29T14:05:34;5.38;;;2.83;;
46116;SDS011;32591;48.102;11.772;2023-07-29T14:08:01;5.20;;;3.38;;
46116;SDS011;32591;48.102;11.772;2023-07-29T14:10:29;4.80;;;3.15;;
46116;SDS011;32591;48.102;11.772;2023-07-29T14:12:57;3.25;;;2.60;;
46116;SDS011;32591;48.102;11.772;2023-07-29T14:15:24;5.07;;;3.42;;
46116;SDS011;32591;48.102;11.772;2023-07-29T14:17:51;5.72;;;3.00;;
46116;SDS011;32591;48.102;11.772;2023-07-29T14:20:18;5.10;;;3.20;;
46116;SDS011;32591;48.102;11.772;2023-07-29T14:22:45;4.93;;;3.30;;
46116;SDS011;32591;48.102;11.772;2023-07-29T14:25:13;5.10;;;2.83;;
46116;SDS011;32591;48.102;11.772;2023-07-29T14:27:40;7.95;;;5.00;;
46116;SDS011;32591;48.102;11.772;2023-07-29T14:30:09;6.65;;;4.13;;
46116;SDS011;32591;48.102;11.772;2023-07-29T14:32:37;4.72;;;3.30;;
46116;SDS011;32591;48.102;11.772;2023-07-29T14:35:04;3.67;;;2.80;;
46116;SDS011;32591;48.102;11.772;2023-07-29T14:37:32;4.60;;;2.63;;
46116;SDS011;32591;48.102;11.772;2023-07-29T14:40:00;5.50;;;3.35;;
46116;SDS011;32591;48.102;11.772;2023-07-29T14:42:27;4.68;;;3.08;;
46116;SDS011;32591;48.102;11.772;2023-07-29T14:44:54;5.18;;;3.15;;